Time;durP1;ratioP1;P1;durP2;ratioP2;P2;SDS_P1;SDS_P2;PMS_P1;PMS_P2;Temp;Humidity;BMP_temperature;BMP_pressure;BME280_temperature;BME280_humidity;BME280_pressure;Samples;Min_cycle;Max_cycle;Signal;HPM_P1;HPM_P2
2022/07/12 00:00:55;;;;;;;25.67;3.78;;;;;;;14.51;100.00;98689.16;5060029;28;20036;-57
2022/07/12 00:03:20;;;;;;;25.88;3.78;;;;;;;14.59;100.00;98687.94;5061855;28;20159;-58
2022/07/12 00:05:46;;;;;;;18.30;3.40;;;;;;;14.63;100.00;98678.97;5060655;28;20190;-58
2022/07/12 00:08:12;;;;;;;24.58;3.80;;;;;;;14.42;100.00;98686.03;5062039;28;20108;-58
2022/07/12 00:10:37;;;;;;;30.08;4.28;;;;;;;14.42;100.00;98686.03;5059683;28;20064;-57
2022/07/12 00:13:03;;;;;;;25.65;3.90;;;;;;;14.35;100.00;98695.09;5061119;28;20025;-58
2022/07/12 00:15:30;;;;;;;23.50;3.53;;;;;;;14.05;100.00;98692.94;5060983;28;21696;-58
2022/07/12 00:17:55;;;;;;;21.80;3.55;;;;;;;14.07;100.00;98692.88;5060977;28;20028;-62
2022/07/12 00:20:20;;;;;;;21.48;3.42;;;;;;;14.13;100.00;98689.97;5059408;28;20687;-59
2022/07/12 00:22:46;;;;;;;21.48;3.35;;;;;;;14.24;100.00;98690.34;5062095;28;20098;-58
2022/07/12 00:25:12;;;;;;;27.38;3.95;;;;;;;14.11;100.00;98694.44;5058922;28;20024;-58
2022/07/12 00:27:38;;;;;;;26.55;3.78;;;;;;;14.17;100.00;98685.44;5061367;28;20505;-59
2022/07/12 00:30:05;;;;;;;34.00;4.68;;;;;;;14.13;100.00;98689.13;5060572;28;20028;-58
2022/07/12 00:32:31;;;;;;;17.33;3.20;;;;;;;13.95;100.00;98691.66;5060092;28;20443;-59
2022/07/12 00:34:56;;;;;;;28.67;4.15;;;;;;;13.71;100.00;98690.06;5060298;28;20745;-57
2022/07/12 00:37:21;;;;;;;22.67;3.72;;;;;;;13.65;100.00;98689.41;5059818;28;20093;-57
2022/07/12 00:39:47;;;;;;;26.50;3.97;;;;;;;13.58;100.00;98697.59;5060466;28;20052;-58
2022/07/12 00:42:12;;;;;;;27.20;4.00;;;;;;;13.54;100.00;98699.50;5059692;28;20063;-57
2022/07/12 00:44:37;;;;;;;24.50;3.63;;;;;;;13.64;100.00;98692.97;5061081;28;20117;-58
2022/07/12 00:47:03;;;;;;;21.60;3.45;;;;;;;13.57;100.00;98691.50;5059358;28;20036;-58
2022/07/12 00:49:30;;;;;;;25.85;3.80;;;;;;;13.53;100.00;98679.47;5060015;28;20101;-57
2022/07/12 00:51:56;;;;;;;27.70;3.90;;;;;;;13.33;100.00;98682.06;5059460;28;20038;-59
2022/07/12 00:54:22;;;;;;;29.33;4.10;;;;;;;13.52;100.00;98682.97;5060362;28;20363;-57
2022/07/12 00:56:47;;;;;;;23.63;3.38;;;;;;;13.67;100.00;98682.34;5059748;28;20056;-57
2022/07/12 00:59:13;;;;;;;22.95;3.42;;;;;;;13.53;100.00;98689.94;5060591;28;20663;-58
2022/07/12 01:01:39;;;;;;;24.10;3.80;;;;;;;13.40;100.00;98691.34;5059225;28;20037;-58
2022/07/12 01:04:05;;;;;;;28.35;3.75;;;;;;;13.43;100.00;98692.06;5060196;28;20079;-58
2022/07/12 01:06:32;;;;;;;27.40;3.95;;;;;;;13.57;100.00;98696.75;5059756;28;20082;-58
2022/07/12 01:09:00;;;;;;;27.73;3.72;;;;;;;14.47;100.00;98685.81;5059152;28;20024;-58
2022/07/12 01:11:26;;;;;;;24.35;3.60;;;;;;;14.27;100.00;98676.25;5059094;28;20759;-60
2022/07/12 01:13:54;;;;;;;27.10;3.95;;;;;;;13.99;100.00;98676.63;5059942;28;20032;-58
2022/07/12 01:16:21;;;;;;;18.92;3.35;;;;;;;13.49;100.00;98688.34;5059951;28;20036;-57
2022/07/12 01:18:46;;;;;;;24.92;3.65;;;;;;;13.41;100.00;98688.66;5059654;28;20037;-57
2022/07/12 01:21:22;;;;;;;27.27;4.03;;;;;;;13.44;100.00;98687.72;5059014;28;20024;-58
2022/07/12 01:23:48;;;;;;;22.77;3.33;;;;;;;13.25;100.00;98680.56;5059026;28;20029;-57
2022/07/12 01:26:13;;;;;;;25.52;3.53;;;;;;;13.29;100.00;98682.16;5059181;28;20045;-58
2022/07/12 01:28:39;;;;;;;21.58;3.25;;;;;;;13.38;100.00;98677.47;5059582;28;20031;-58
2022/07/12 01:31:05;;;;;;;25.50;3.40;;;;;;;13.67;100.00;98681.47;5057814;28;20036;-58
2022/07/12 01:33:30;;;;;;;29.85;3.85;;;;;;;13.43;100.00;98683.38;5059183;28;20740;-58
2022/07/12 01:35:56;;;;;;;27.05;3.63;;;;;;;13.43;100.00;98673.72;5059652;28;20043;-57
2022/07/12 01:38:22;;;;;;;26.45;3.67;;;;;;;13.13;100.00;98675.00;5059483;28;20017;-57
2022/07/12 01:40:47;;;;;;;21.63;3.60;;;;;;;13.03;100.00;98674.47;5058124;28;20055;-57
2022/07/12 01:43:13;;;;;;;26.85;3.95;;;;;;;12.78;100.00;98678.09;5059309;28;20036;-58
2022/07/12 01:45:39;;;;;;;21.70;3.40;;;;;;;12.67;100.00;98672.41;5059120;28;20463;-57
2022/07/12 01:48:04;;;;;;;27.13;3.75;;;;;;;12.76;100.00;98679.91;5058424;28;20089;-58
2022/07/12 01:50:30;;;;;;;26.48;3.63;;;;;;;12.64;100.00;98683.84;5058147;28;20031;-59
2022/07/12 01:52:56;;;;;;;30.58;4.15;;;;;;;12.65;100.00;98685.56;5059262;28;20060;-57
2022/07/12 01:55:23;;;;;;;23.20;3.65;;;;;;;12.50;100.00;98683.53;5058177;28;20029;-58
2022/07/12 01:57:49;;;;;;;27.30;3.83;;;;;;;12.69;100.00;98675.84;5059216;28;20071;-58
2022/07/12 02:00:14;;;;;;;31.05;4.15;;;;;;;12.79;100.00;98677.19;5056756;28;20639;-57
2022/07/12 02:02:40;;;;;;;25.70;3.60;;;;;;;12.79;100.00;98679.81;5059038;28;20058;-59
2022/07/12 02:05:05;;;;;;;32.63;4.43;;;;;;;12.88;100.00;98682.06;5057650;28;20038;-57
2022/07/12 02:07:32;;;;;;;24.52;3.40;;;;;;;13.48;100.00;98681.41;5058317;28;20837;-57
2022/07/12 02:09:58;;;;;;;33.28;4.43;;;;;;;12.76;100.00;98684.31;5058173;28;20501;-57
2022/07/12 02:12:24;;;;;;;30.73;4.10;;;;;;;12.53;100.00;98681.66;5057932;28;20045;-58
2022/07/12 02:14:50;;;;;;;23.98;3.50;;;;;;;12.70;100.00;98687.97;5058414;28;20028;-58
2022/07/12 02:17:16;;;;;;;27.85;3.92;;;;;;;12.81;100.00;98687.56;5057872;28;20342;-57
2022/07/12 02:19:42;;;;;;;26.58;3.88;;;;;;;12.73;100.00;98685.25;5057443;28;20032;-58
2022/07/12 02:22:08;;;;;;;24.25;3.40;;;;;;;12.48;100.00;98682.72;5057665;28;20032;-59
2022/07/12 02:24:34;;;;;;;28.25;3.88;;;;;;;12.66;100.00;98681.16;5058041;28;20070;-58
2022/07/12 02:26:59;;;;;;;20.45;3.20;;;;;;;12.73;100.00;98677.41;5058466;28;20620;-58
2022/07/12 02:29:25;;;;;;;26.05;3.63;;;;;;;12.58;100.00;98683.25;5058276;28;20032;-59
2022/07/12 02:31:50;;;;;;;25.10;3.70;;;;;;;12.42;100.00;98683.81;5057788;28;20040;-57
2022/07/12 02:34:16;;;;;;;37.30;4.65;;;;;;;12.57;100.00;98694.59;5056472;28;20024;-57
2022/07/12 02:36:41;;;;;;;30.92;3.85;;;;;;;12.57;100.00;98681.53;5056422;28;20039;-58
2022/07/12 02:39:07;;;;;;;35.78;4.53;;;;;;;12.52;100.00;98690.41;5056405;28;20082;-57
2022/07/12 02:41:33;;;;;;;29.90;4.03;;;;;;;12.44;100.00;98691.59;5057697;28;20051;-58
2022/07/12 02:43:59;;;;;;;21.67;3.30;;;;;;;12.43;100.00;98682.06;5058921;28;20029;-58
2022/07/12 02:46:24;;;;;;;25.10;3.60;;;;;;;12.33;100.00;98689.38;5056755;28;20043;-57
2022/07/12 02:48:49;;;;;;;30.75;4.30;;;;;;;12.14;100.00;98687.44;5057751;28;20039;-57
2022/07/12 02:51:15;;;;;;;22.90;3.58;;;;;;;12.18;100.00;98689.97;5058210;28;20040;-58
2022/07/12 02:53:40;;;;;;;28.60;4.18;;;;;;;12.03;100.00;98686.97;5057684;28;20028;-58
2022/07/12 02:56:06;;;;;;;20.75;3.10;;;;;;;11.92;100.00;98694.38;5058659;28;20099;-55
2022/07/12 02:58:31;;;;;;;22.58;3.40;;;;;;;12.09;100.00;98689.41;5058632;28;20754;-54
2022/07/12 03:00:57;;;;;;;24.67;3.70;;;;;;;12.26;100.00;98694.00;5057885;28;20099;-56
2022/07/12 03:03:22;;;;;;;36.53;4.47;;;;;;;12.13;100.00;98693.59;5057938;28;20123;-53
2022/07/12 03:05:47;;;;;;;22.92;3.75;;;;;;;12.05;100.00;98690.41;5057555;28;20048;-54
2022/07/12 03:08:13;;;;;;;25.67;3.75;;;;;;;12.03;100.00;98691.38;5058525;28;20032;-54
2022/07/12 03:10:39;;;;;;;26.20;3.97;;;;;;;12.07;100.00;98703.41;5057527;28;20068;-52
2022/07/12 03:13:05;;;;;;;26.45;3.75;;;;;;;12.28;100.00;98686.94;5062532;28;20035;-53
2022/07/12 03:15:31;;;;;;;25.30;3.65;;;;;;;12.21;100.00;98695.09;5060908;28;20029;-53
2022/07/12 03:17:57;;;;;;;27.60;3.83;;;;;;;12.13;100.00;98698.84;5062064;28;20438;-53
2022/07/12 03:20:23;;;;;;;27.35;3.85;;;;;;;11.50;100.00;98700.13;5060753;28;20058;-52
2022/07/12 03:22:51;;;;;;;27.80;3.92;;;;;;;11.63;100.00;98713.63;5061936;28;20029;-59
2022/07/12 03:25:17;;;;;;;28.63;3.92;;;;;;;11.63;100.00;98714.47;5060369;28;20417;-52
2022/07/12 03:27:43;;;;;;;24.88;3.45;;;;;;;11.60;100.00;98719.81;5062261;28;20027;-53
2022/07/12 03:30:09;;;;;;;42.97;5.30;;;;;;;11.63;100.00;98721.47;5059912;28;20028;-53
2022/07/12 03:32:35;;;;;;;28.75;3.67;;;;;;;11.68;100.00;98716.94;5061514;28;20111;-53
2022/07/12 03:35:00;;;;;;;30.23;4.13;;;;;;;11.57;100.00;98714.69;5061455;28;20028;-54
2022/07/12 03:37:26;;;;;;;28.05;3.67;;;;;;;11.50;100.00;98721.03;5060575;28;20048;-53
2022/07/12 03:39:53;;;;;;;31.60;4.05;;;;;;;11.70;100.00;98715.97;5060922;28;20725;-53
2022/07/12 03:42:19;;;;;;;32.85;4.15;;;;;;;11.94;100.00;98708.22;5060598;28;20363;-53
2022/07/12 03:44:44;;;;;;;72.90;7.50;;;;;;;12.13;100.00;98701.44;5058918;28;20689;-54
2022/07/12 03:47:09;;;;;;;30.10;4.05;;;;;;;12.12;100.00;98711.97;5060967;28;20598;-54
2022/07/12 03:49:35;;;;;;;24.27;3.45;;;;;;;12.18;100.00;98705.66;5061531;28;20081;-55
2022/07/12 03:52:02;;;;;;;26.20;3.60;;;;;;;11.97;100.00;98713.34;5058833;28;20530;-53
2022/07/12 03:54:28;;;;;;;30.83;4.30;;;;;;;11.79;100.00;98717.44;5060392;28;20052;-53
2022/07/12 03:59:37;;;;;;;25.02;3.63;;;;;;;12.27;100.00;98714.00;5061526;28;20143;-55
2022/07/12 04:02:03;;;;;;;31.42;3.72;;;;;;;12.72;100.00;98707.13;5060980;28;20147;-53
2022/07/12 04:04:28;;;;;;;28.15;3.78;;;;;;;12.37;100.00;98711.94;5061034;28;20028;-53
2022/07/12 04:06:54;;;;;;;28.80;3.78;;;;;;;12.68;100.00;98718.59;5059313;28;20458;-55
2022/07/12 04:09:19;;;;;;;27.13;3.63;;;;;;;12.67;100.00;98709.06;5061111;28;20109;-54
2022/07/12 04:11:45;;;;;;;31.02;4.40;;;;;;;12.52;100.00;98706.13;5059278;28;20036;-54
2022/07/12 04:14:10;;;;;;;29.55;3.80;;;;;;;12.47;100.00;98707.19;5060532;28;20406;-53
2022/07/12 04:16:36;;;;;;;28.33;3.90;;;;;;;12.77;100.00;98705.16;5059747;28;20076;-56
2022/07/12 04:19:01;;;;;;;21.17;3.33;;;;;;;13.03;100.00;98705.91;5060688;28;20036;-56
2022/07/12 04:21:27;;;;;;;24.27;3.58;;;;;;;13.35;100.00;98704.66;5060237;28;20048;-56
2022/07/12 04:23:52;;;;;;;24.95;3.50;;;;;;;13.48;100.00;98702.38;5059489;28;20107;-54
2022/07/12 04:26:18;;;;;;;31.52;4.18;;;;;;;13.60;100.00;98709.75;5060088;28;20086;-55
2022/07/12 04:28:43;;;;;;;29.30;3.95;;;;;;;13.89;100.00;98697.13;5060733;28;20030;-53
2022/07/12 04:31:09;;;;;;;25.48;3.72;;;;;;;14.32;100.00;98697.88;5059550;28;20478;-54
2022/07/12 04:33:35;;;;;;;25.05;3.83;;;;;;;14.43;100.00;98708.75;5060993;28;20043;-53
2022/07/12 04:36:00;;;;;;;20.80;3.42;;;;;;;14.60;100.00;98694.88;5060261;28;20044;-54
2022/07/12 04:38:25;;;;;;;23.73;3.85;;;;;;;14.73;100.00;98696.94;5060818;28;20036;-53
2022/07/12 04:40:51;;;;;;;33.17;4.70;;;;;;;14.82;100.00;98702.59;5059320;28;20042;-53
2022/07/12 04:43:16;;;;;;;23.17;3.80;;;;;;;14.86;100.00;98710.34;5061323;28;20028;-54
2022/07/12 04:45:45;;;;;;;23.20;3.90;;;;;;;14.55;100.00;98717.81;5058027;28;20041;-56
2022/07/12 04:48:11;;;;;;;23.90;3.70;;;;;;;15.26;100.00;98711.91;5059475;28;20938;-53
2022/07/12 04:50:36;;;;;;;25.92;3.97;;;;;;;15.70;100.00;98713.25;5058960;28;20795;-56
2022/07/12 04:53:02;;;;;;;28.90;4.60;;;;;;;15.81;100.00;98705.69;5059216;28;20024;-54
2022/07/12 04:55:27;;;;;;;29.23;4.90;;;;;;;15.56;100.00;98706.06;5059039;28;20498;-53
2022/07/12 04:57:53;;;;;;;23.83;4.43;;;;;;;15.87;100.00;98705.38;5060136;28;20028;-54
2022/07/12 05:00:18;;;;;;;27.08;5.10;;;;;;;16.76;100.00;98700.66;5058931;28;20021;-54
2022/07/12 05:02:44;;;;;;;27.67;5.03;;;;;;;16.32;100.00;98706.53;5064519;28;20040;-54
2022/07/12 05:05:09;;;;;;;37.10;5.80;;;;;;;18.67;100.00;98704.44;5055150;28;20025;-57
2022/07/12 05:07:34;;;;;;;28.88;5.43;;;;;;;19.11;100.00;98692.03;5057897;28;20021;-55
2022/07/12 05:10:00;;;;;;;29.95;5.32;;;;;;;21.37;100.00;98674.50;5059017;28;20434;-54
2022/07/12 05:12:25;;;;;;;22.17;4.88;;;;;;;21.65;100.00;98685.78;5058583;28;20486;-54
2022/07/12 05:14:50;;;;;;;20.08;4.28;;;;;;;24.00;100.00;98687.34;5060041;28;20798;-55
2022/07/12 05:17:16;;;;;;;17.45;4.05;;;;;;;25.95;88.46;98682.47;5059079;28;20739;-54
2022/07/12 05:19:41;;;;;;;19.00;4.25;;;;;;;25.79;78.02;98684.88;5059962;28;20566;-54
2022/07/12 05:22:07;;;;;;;18.67;4.28;;;;;;;24.92;72.52;98693.63;5056787;28;20123;-54
2022/07/12 05:24:32;;;;;;;19.13;4.22;;;;;;;22.78;100.00;98698.31;5058611;28;20528;-56
2022/07/12 05:26:57;;;;;;;19.10;4.18;;;;;;;22.07;100.00;98701.19;5058528;28;20072;-54
2022/07/12 05:29:23;;;;;;;20.45;4.57;;;;;;;19.64;100.00;98703.50;5059310;28;20124;-55
2022/07/12 05:31:48;;;;;;;19.20;3.88;;;;;;;21.54;100.00;98701.63;5055594;28;20611;-55
2022/07/12 05:34:13;;;;;;;19.38;4.20;;;;;;;22.73;100.00;98704.00;5056238;28;20107;-56
2022/07/12 05:36:39;;;;;;;18.42;4.07;;;;;;;25.98;80.49;98704.56;5056032;28;20041;-53
2022/07/12 05:39:05;;;;;;;23.40;4.97;;;;;;;22.78;100.00;98704.47;5056149;28;20109;-52
2022/07/12 05:41:30;;;;;;;21.73;4.28;;;;;;;25.00;100.00;98691.97;5056039;28;20118;-52
2022/07/12 05:43:55;;;;;;;14.48;3.70;;;;;;;27.95;63.66;98704.16;5058483;28;20029;-54
2022/07/12 05:46:21;;;;;;;14.98;3.53;;;;;;;27.43;62.01;98695.00;5058571;28;20032;-54
2022/07/12 05:48:46;;;;;;;15.38;3.72;;;;;;;25.75;75.36;98691.44;5059135;28;20043;-53
2022/07/12 05:53:56;;;;;;;14.02;3.63;;;;;;;27.48;65.82;98706.09;5058255;28;20055;-54
2022/07/12 05:56:21;;;;;;;13.30;3.10;;;;;;;29.35;59.13;98697.59;5058141;28;20044;-54
2022/07/12 05:58:47;;;;;;;10.93;3.10;;;;;;;29.30;52.59;98690.03;5059500;28;20075;-52
2022/07/12 06:01:12;;;;;;;14.65;3.65;;;;;;;27.23;57.48;98694.28;5056736;28;20032;-53
2022/07/12 06:03:37;;;;;;;9.65;2.67;;;;;;;30.74;50.59;98688.50;5056089;28;20029;-53
2022/07/12 06:06:03;;;;;;;9.85;2.92;;;;;;;30.72;50.62;98687.84;5056721;28;20059;-54
2022/07/12 06:08:28;;;;;;;9.18;2.78;;;;;;;30.43;50.77;98691.16;5059596;28;20060;-53
2022/07/12 06:10:54;;;;;;;11.90;2.95;;;;;;;31.70;46.36;98695.34;5058367;28;20119;-53
2022/07/12 06:13:19;;;;;;;12.35;2.90;;;;;;;30.49;49.48;98694.00;5063785;28;20183;-53
2022/07/12 06:15:44;;;;;;;8.88;2.38;;;;;;;31.67;46.12;98701.09;5057887;28;20036;-54
2022/07/12 06:18:10;;;;;;;8.65;2.50;;;;;;;28.01;52.48;98706.19;5058104;28;20023;-53
2022/07/12 06:20:35;;;;;;;9.00;2.60;;;;;;;29.25;49.56;98703.13;5057725;28;20085;-53
2022/07/12 06:23:00;;;;;;;8.07;2.55;;;;;;;32.21;45.23;98699.28;5058655;28;20048;-53
2022/07/12 06:25:26;;;;;;;8.90;2.60;;;;;;;32.49;45.18;98698.63;5057395;28;20560;-54
2022/07/12 06:27:51;;;;;;;8.02;2.67;;;;;;;31.74;43.81;98700.38;5058328;28;20020;-53
2022/07/12 06:30:18;;;;;;;8.45;2.58;;;;;;;31.92;45.60;98703.56;5056829;28;20071;-52
2022/07/12 06:32:46;;;;;;;9.02;2.40;;;;;;;31.19;44.81;98697.72;5057919;28;20024;-53
2022/07/12 06:35:11;;;;;;;9.25;2.30;;;;;;;32.22;43.99;98698.25;5057501;28;20028;-55
2022/07/12 06:37:36;;;;;;;6.93;2.03;;;;;;;32.98;41.55;98698.03;5058302;28;20023;-54
2022/07/12 06:40:02;;;;;;;10.32;2.97;;;;;;;33.19;40.89;98700.78;5057798;28;20218;-53
2022/07/12 06:42:28;;;;;;;7.75;1.98;;;;;;;34.02;39.15;98699.50;5057792;28;20045;-53
2022/07/12 06:44:54;;;;;;;7.93;2.05;;;;;;;32.40;40.66;98706.81;5057697;28;20035;-54
2022/07/12 06:47:19;;;;;;;5.82;2.00;;;;;;;31.87;41.96;98701.44;5064756;28;20036;-53
2022/07/12 06:49:45;;;;;;;7.68;2.10;;;;;;;32.75;42.15;98712.50;5066320;28;20107;-53
2022/07/12 06:52:11;;;;;;;7.15;2.15;;;;;;;31.01;44.17;98711.47;5063233;28;20068;-56
2022/07/12 06:54:36;;;;;;;6.00;2.00;;;;;;;30.42;45.86;98714.56;5065286;28;20020;-54
2022/07/12 06:57:01;;;;;;;6.10;2.05;;;;;;;32.17;43.14;98716.88;5065818;28;20044;-53
2022/07/12 06:59:27;;;;;;;9.40;2.50;;;;;;;30.94;44.26;98716.72;5064674;28;20073;-53
2022/07/12 07:01:55;;;;;;;7.75;1.95;;;;;;;30.59;43.59;98723.41;5064371;28;20036;-56
2022/07/12 07:04:21;;;;;;;6.82;2.30;;;;;;;31.08;43.49;98716.97;5064409;28;20115;-56
2022/07/12 07:06:46;;;;;;;9.43;2.40;;;;;;;33.12;40.87;98710.72;5064850;28;20534;-57
2022/07/12 07:09:12;;;;;;;12.98;2.78;;;;;;;30.94;44.26;98721.28;5065359;28;20055;-53
2022/07/12 07:11:37;;;;;;;9.18;2.63;;;;;;;31.28;44.20;98720.91;5064648;28;20041;-53
2022/07/12 07:14:03;;;;;;;5.90;2.05;;;;;;;32.11;41.16;98709.50;5063723;28;20055;-53
2022/07/12 07:16:29;;;;;;;6.78;2.03;;;;;;;33.71;39.49;98712.38;5064342;28;20040;-53
2022/07/12 07:18:55;;;;;;;7.75;2.30;;;;;;;34.32;38.71;98719.94;5065233;28;20075;-53
2022/07/12 07:21:20;;;;;;;6.50;2.00;;;;;;;34.45;36.50;98715.66;5063644;28;20042;-56
2022/07/12 07:23:45;;;;;;;6.68;2.25;;;;;;;35.19;37.03;98722.28;5064114;28;20040;-55
2022/07/12 07:26:11;;;;;;;6.97;1.95;;;;;;;34.59;35.42;98716.53;5064357;28;20064;-53
2022/07/12 07:30:52;;;;;;;5.28;2.00;;;;;;;34.80;37.44;98723.78;5065763;28;20024;-54
2022/07/12 07:31:22;;;;;;;5.55;2.13;;;;;;;32.27;39.47;98712.84;5063105;28;20037;-53
2022/07/12 07:33:47;;;;;;;5.35;1.98;;;;;;;34.89;36.83;98719.84;5064303;28;20031;-53
2022/07/12 07:36:12;;;;;;;6.75;2.05;;;;;;;34.62;37.18;98711.56;5064641;28;20032;-54
2022/07/12 07:38:38;;;;;;;4.78;1.80;;;;;;;33.64;37.97;98711.44;5063822;28;20052;-53
2022/07/12 07:41:04;;;;;;;4.38;1.75;;;;;;;33.34;36.75;98717.00;5063518;28;20051;-53
2022/07/12 07:43:29;;;;;;;8.30;2.30;;;;;;;34.17;36.71;98708.41;5065089;28;20074;-53
2022/07/12 07:45:54;;;;;;;5.90;2.15;;;;;;;34.75;36.48;98717.06;5064265;28;20040;-55
2022/07/12 07:48:20;;;;;;;4.82;1.90;;;;;;;35.72;34.87;98721.56;5065010;28;20879;-54
2022/07/12 07:50:45;;;;;;;5.72;2.17;;;;;;;34.33;36.52;98716.19;5063706;28;20555;-53
2022/07/12 07:53:11;;;;;;;5.20;1.80;;;;;;;33.48;37.30;98725.22;5065039;28;20020;-54
2022/07/12 07:55:36;;;;;;;8.85;2.17;;;;;;;34.41;35.84;98719.75;5063630;28;20032;-55
2022/07/12 07:58:02;;;;;;;5.30;2.13;;;;;;;31.80;39.54;98730.16;5062030;28;20123;-54
2022/07/12 08:00:28;;;;;;;7.43;2.45;;;;;;;30.40;41.64;98730.00;5060203;28;20036;-54
2022/07/12 08:02:55;;;;;;;5.40;2.00;;;;;;;29.58;43.57;98725.50;5061042;28;20342;-52
2022/07/12 08:05:20;;;;;;;5.50;1.90;;;;;;;27.91;46.83;98725.06;5060429;28;20028;-53
2022/07/12 08:07:46;;;;;;;6.63;2.22;;;;;;;30.42;42.99;98727.16;5060543;28;20313;-53
2022/07/12 08:10:11;;;;;;;13.00;3.25;;;;;;;29.09;44.72;98724.53;5060161;28;20674;-54
2022/07/12 08:12:36;;;;;;;8.82;2.53;;;;;;;28.21;47.89;98725.59;5061112;28;20031;-52
2022/07/12 08:15:02;;;;;;;6.45;1.92;;;;;;;30.78;44.76;98722.16;5060833;28;20043;-52
2022/07/12 08:17:28;;;;;;;8.05;2.33;;;;;;;31.88;40.36;98723.84;5060118;28;20094;-52
2022/07/12 08:19:54;;;;;;;11.02;2.50;;;;;;;32.69;39.53;98725.94;5059760;28;20566;-52
2022/07/12 08:22:19;;;;;;;12.15;2.92;;;;;;;31.79;38.54;98722.25;5060090;28;20032;-52
2022/07/12 08:24:44;;;;;;;8.73;2.20;;;;;;;33.12;35.94;98710.72;5060329;28;20036;-54
2022/07/12 08:27:10;;;;;;;11.38;2.75;;;;;;;32.53;37.54;98710.72;5061595;28;20079;-53
2022/07/12 08:29:35;;;;;;;9.60;2.30;;;;;;;31.13;38.83;98709.19;5060910;28;20946;-52
2022/07/12 08:32:01;;;;;;;10.63;2.50;;;;;;;32.15;40.26;98703.56;5059059;28;20072;-53
2022/07/12 08:34:26;;;;;;;10.30;2.47;;;;;;;32.14;37.66;98701.88;5059448;28;20459;-55
2022/07/12 08:36:52;;;;;;;11.15;2.28;;;;;;;32.54;37.66;98691.66;5059862;28;20123;-53
2022/07/12 08:39:17;;;;;;;9.07;2.30;;;;;;;33.60;36.61;98696.63;5060035;28;20024;-52
2022/07/12 08:41:42;;;;;;;9.63;2.42;;;;;;;32.22;39.62;98698.25;5048411;28;20503;-54
2022/07/12 08:44:08;;;;;;;8.32;2.22;;;;;;;34.00;37.50;98694.28;5059948;28;20033;-53
2022/07/12 08:46:33;;;;;;;10.68;2.63;;;;;;;33.23;37.83;98703.94;5059995;28;20163;-53
2022/07/12 08:49:06;;;;;;;10.68;2.42;;;;;;;29.36;43.24;98694.72;5058802;28;20032;-53
2022/07/12 08:51:31;;;;;;;9.10;2.42;;;;;;;30.42;42.44;98693.03;5057107;28;20895;-52
2022/07/12 08:54:09;;;;;;;11.15;2.40;;;;;;;28.73;46.20;98697.88;5057736;28;20024;-53
2022/07/12 08:56:40;;;;;;;9.23;2.25;;;;;;;29.66;45.24;98697.75;5057975;28;20032;-52
2022/07/12 08:59:12;;;;;;;11.18;2.70;;;;;;;29.87;42.61;98701.81;5059020;28;20119;-54
2022/07/12 09:01:58;;;;;;;12.70;2.70;;;;;;;28.69;45.60;98704.59;5044878;28;20417;-53
2022/07/12 09:04:27;;;;;;;11.90;2.83;;;;;;;30.63;44.37;98707.75;5057329;28;20052;-53
2022/07/12 09:06:52;;;;;;;11.48;2.75;;;;;;;30.30;43.78;98707.81;5046088;28;20297;-53
2022/07/12 09:09:28;;;;;;;10.18;2.25;;;;;;;32.11;40.17;98706.81;5058762;28;20024;-53
2022/07/12 09:11:54;;;;;;;8.45;2.25;;;;;;;30.41;41.04;98706.66;5056589;28;20040;-55
2022/07/12 09:14:20;;;;;;;10.05;2.20;;;;;;;32.81;36.75;98703.66;5059448;28;20017;-52
2022/07/12 09:17:01;;;;;;;13.20;2.70;;;;;;;31.44;38.59;98714.56;5057543;28;20040;-52
2022/07/12 09:19:26;;;;;;;10.98;2.50;;;;;;;31.63;39.69;98715.13;5074263;28;20059;-54
2022/07/12 09:21:54;;;;;;;9.30;2.38;;;;;;;31.40;40.33;98715.09;5058189;28;20458;-53
2022/07/12 09:24:20;;;;;;;12.50;2.58;;;;;;;31.30;40.84;98712.63;5059346;28;20048;-53
2022/07/12 09:26:47;;;;;;;10.77;2.50;;;;;;;30.68;40.61;98705.38;5045731;28;20033;-52
2022/07/12 09:29:13;;;;;;;7.75;1.92;;;;;;;27.29;45.90;98714.28;5059497;28;20447;-53
2022/07/12 09:36:06;;;;;;;10.82;2.38;;;;;;;27.38;46.32;98707.16;5056652;28;20048;-53
2022/07/12 09:37:13;;;;;;;13.70;2.63;;;;;;;26.90;47.47;98709.16;5058637;28;20528;-53
2022/07/12 09:39:40;;;;;;;14.35;2.90;;;;;;;29.11;42.71;98711.78;5058480;28;20040;-53
2022/07/12 09:42:09;;;;;;;12.63;2.53;;;;;;;30.09;40.53;98706.53;5044260;28;20037;-53
2022/07/12 09:44:35;;;;;;;8.02;1.92;;;;;;;30.18;39.84;98700.13;5058750;28;20067;-53
2022/07/12 09:47:01;;;;;;;13.32;2.88;;;;;;;31.81;38.13;98704.03;5057048;28;20410;-55
2022/07/12 09:49:27;;;;;;;12.60;2.65;;;;;;;32.20;39.14;98692.19;5058828;28;20493;-52
2022/07/12 09:51:57;;;;;;;11.23;2.30;;;;;;;31.91;39.05;98707.31;5058525;28;20097;-52
2022/07/12 09:54:27;;;;;;;14.45;2.70;;;;;;;29.05;41.70;98701.69;5058852;28;20920;-52
2022/07/12 09:56:54;;;;;;;12.63;2.70;;;;;;;28.54;42.70;98694.47;5046836;28;20040;-53
2022/07/12 09:59:23;;;;;;;15.18;2.70;;;;;;;27.30;45.63;98699.91;5059540;28;20051;-52
2022/07/12 10:01:51;;;;;;;12.95;2.42;;;;;;;28.50;42.95;98697.63;5057832;28;20973;-53
2022/07/12 10:04:21;;;;;;;11.68;2.60;;;;;;;30.81;38.89;98697.56;5058715;28;20074;-52
2022/07/12 10:06:47;;;;;;;11.02;2.30;;;;;;;28.66;41.51;98696.88;5057785;28;20073;-53
2022/07/12 10:09:14;;;;;;;11.65;2.50;;;;;;;28.92;42.66;98703.00;5047748;28;20029;-52
2022/07/12 10:11:41;;;;;;;10.98;2.42;;;;;;;28.59;44.43;98702.03;5057174;28;20082;-53
2022/07/12 10:14:11;;;;;;;11.73;2.47;;;;;;;28.22;45.40;98704.00;5059566;28;20035;-52
2022/07/12 10:16:38;;;;;;;9.90;2.28;;;;;;;27.37;46.97;98711.69;5059293;28;20032;-51
2022/07/12 10:19:25;;;;;;;16.23;2.92;;;;;;;27.66;46.94;98716.81;5058898;28;20040;-52
2022/07/12 10:21:55;;;;;;;13.77;2.70;;;;;;;26.39;49.42;98705.13;5055899;28;20068;-52
2022/07/12 10:24:33;;;;;;;14.02;2.80;;;;;;;25.82;48.43;98707.78;5046579;28;20098;-51
2022/07/12 10:27:00;;;;;;;15.38;2.90;;;;;;;27.76;43.43;98706.00;5057343;28;20041;-60
2022/07/12 10:29:26;;;;;;;15.68;2.88;;;;;;;30.53;39.12;98695.34;5058029;28;20041;-53
2022/07/12 10:31:52;;;;;;;12.15;2.60;;;;;;;28.90;42.01;98688.91;5056942;28;20114;-52
2022/07/12 10:34:23;;;;;;;17.92;2.90;;;;;;;30.88;40.67;98695.84;5057102;28;20021;-53
2022/07/12 10:36:54;;;;;;;14.82;2.55;;;;;;;30.58;40.23;98685.88;5055361;28;20025;-52
2022/07/12 10:39:24;;;;;;;15.63;3.00;;;;;;;29.78;38.85;98674.13;5059003;28;20157;-52
2022/07/12 10:42:07;;;;;;;12.77;2.58;;;;;;;30.43;39.60;98681.22;5057329;28;20052;-53
2022/07/12 10:44:40;;;;;;;25.15;3.45;;;;;;;30.00;40.35;98669.88;5057617;28;20107;-52
2022/07/12 10:47:07;;;;;;;12.20;2.63;;;;;;;31.32;39.40;98671.03;5057575;28;20127;-53
2022/07/12 10:49:35;;;;;;;15.45;2.92;;;;;;;30.44;39.20;98669.47;5057730;28;20032;-52
2022/07/12 10:52:10;;;;;;;12.05;2.63;;;;;;;31.01;38.71;98676.44;5053701;28;20056;-52
2022/07/12 10:54:40;;;;;;;15.65;2.90;;;;;;;30.60;37.46;98675.78;5058227;28;20017;-52
2022/07/12 10:57:06;;;;;;;11.90;2.75;;;;;;;30.93;37.16;98677.34;5057378;28;20078;-52
2022/07/12 10:59:36;;;;;;;11.75;2.70;;;;;;;31.48;35.93;98672.75;5059227;28;20526;-53
2022/07/12 11:02:03;;;;;;;10.25;2.50;;;;;;;31.89;36.21;98680.50;5057312;28;20047;-52
2022/07/12 11:04:29;;;;;;;12.80;2.63;;;;;;;31.28;37.14;98683.19;5057887;28;20986;-52
2022/07/12 11:06:57;;;;;;;10.50;2.30;;;;;;;31.16;34.95;98673.81;5057818;28;20566;-52
2022/07/12 11:09:23;;;;;;;11.50;2.50;;;;;;;29.25;38.11;98670.88;5074192;28;20024;-52
2022/07/12 11:11:50;;;;;;;16.15;3.28;;;;;;;29.93;36.68;98663.50;5054833;28;20044;-51
2022/07/12 11:14:24;;;;;;;16.13;3.47;;;;;;;31.10;35.17;98666.44;5057030;28;20047;-56
2022/07/12 11:16:54;;;;;;;13.93;3.28;;;;;;;29.80;36.57;98672.09;5056484;28;20049;-51
2022/07/12 11:19:26;;;;;;;11.38;2.40;;;;;;;28.61;38.89;98671.34;5058620;28;20040;-52
2022/07/12 11:21:58;;;;;;;15.55;2.92;;;;;;;30.72;38.38;98666.31;5056734;28;20036;-52
2022/07/12 11:24:27;;;;;;;14.43;2.70;;;;;;;30.27;37.86;98654.34;5057450;28;20551;-51
2022/07/12 11:26:53;;;;;;;12.32;2.70;;;;;;;31.07;37.96;98650.66;5056952;28;20131;-52
2022/07/12 11:29:19;;;;;;;11.73;2.58;;;;;;;31.66;36.47;98658.97;5059567;28;20790;-52